Saint David, Arizona
Current Conditions -  °F | °C
As of 4:55 PM on Monday 20 Oct 2014 (Local Time) from KFHU Reporting Station
Scattered Clouds Scattered Clouds  
Wind Chill: 72°   Ceiling: Unl
Heat Index: 72°   Visibility: 10mi
Dew Point: 41°   Wind: 8mph
Humidity: 33%   Direction: 60°ENE
Pressure: 29.99"   Gusts: NA
Location:  31.9°N, 110.22°W
Report Text: KFHU 202355Z 06007KT 10SM FEW060 SCT120 22/05 A2999 RMK SLP110 SH DSNT N 56010
Loading
Personal Weather Stations






























Interactive Weather Map
Tropical Storm Tracking
New forecast layout! Learn more

10-Day Weather Forecast

Advertisements
Track Severe Weather on mobile